< < Back
Terminal Aerodrome Forecast


Current Version              Previous Versions:   1  2  3  4  5  6  7  8  9  

Terminal Aerodrome Forecast

676
FTUS42 KGSP 241120
TAFGSP
TAF
KGSP 241120Z 2412/2512 VRB03KT P6SM FEW070
     FM241500 23006KT P6SM SCT250
     FM250200 23003KT P6SM SCT250=

Latest METAR

809
SAUS70 KWBC 241300 RRF
MTRGSP
METAR KGSP 241253Z 26006KT 10SM CLR 19/13 A3017 RMK AO2 SLP209
T01940128


USA.gov is the U.S. government's official web portal to all federal, state and local government web resources and services.